Terminal Aerodrome Forecast
Issued by NWS

Home | Current Version | Previous Version | Text Only | Print | Product List | Glossary On
Versions: 1 2 3 4 5 6 7 8 9 10 11 12 13 14 15 16 17
000
FTUS46 KSEW 272100 AAA
TAFPAE
TAF AMD
KPAE 272103Z 2721/2818 18015G22KT P6SM BKN150
     FM272200 18015G22KT P6SM BKN040 BKN120
     FM280300 20012KT P6SM -RA BKN020 OVC040
     FM281200 21010KT P6SM -SHRA BKN015 BKN030
     FM281700 23007KT P6SM VCSH BKN025 BKN050=

USA.gov is the U.S. government's official web portal to all federal, state and local government web resources and services.